sensor_id;sensor_type;location;lat;lon;timestamp;temperature;humidity
20560;DHT22;10438;51.454;6.718;2022-08-19T00:01:48;19.50;99.90
20560;DHT22;10438;51.454;6.718;2022-08-19T00:04:17;19.50;99.90
20560;DHT22;10438;51.454;6.718;2022-08-19T00:06:45;19.40;99.90
20560;DHT22;10438;51.454;6.718;2022-08-19T00:09:13;19.50;99.90
20560;DHT22;10438;51.454;6.718;2022-08-19T00:11:40;19.40;99.90
20560;DHT22;10438;51.454;6.718;2022-08-19T00:14:07;19.40;99.90
20560;DHT22;10438;51.454;6.718;2022-08-19T00:16:35;19.40;99.90
20560;DHT22;10438;51.454;6.718;2022-08-19T00:19:00;19.30;99.90
20560;DHT22;10438;51.454;6.718;2022-08-19T00:21:26;19.30;99.90
20560;DHT22;10438;51.454;6.718;2022-08-19T00:23:53;19.30;99.90
20560;DHT22;10438;51.454;6.718;2022-08-19T00:26:19;19.20;99.90
20560;DHT22;10438;51.454;6.718;2022-08-19T00:28:45;19.20;99.90
20560;DHT22;10438;51.454;6.718;2022-08-19T00:31:11;19.10;99.90
20560;DHT22;10438;51.454;6.718;2022-08-19T00:33:37;19.10;99.90
20560;DHT22;10438;51.454;6.718;2022-08-19T00:36:05;19.10;99.90
20560;DHT22;10438;51.454;6.718;2022-08-19T00:38:32;19.10;99.90
20560;DHT22;10438;51.454;6.718;2022-08-19T00:40:58;19.00;99.90
20560;DHT22;10438;51.454;6.718;2022-08-19T00:43:26;19.00;99.90
20560;DHT22;10438;51.454;6.718;2022-08-19T00:45:53;19.00;99.90
20560;DHT22;10438;51.454;6.718;2022-08-19T00:48:19;18.90;99.90
20560;DHT22;10438;51.454;6.718;2022-08-19T00:50:45;18.90;99.90
20560;DHT22;10438;51.454;6.718;2022-08-19T00:53:15;18.90;99.90
20560;DHT22;10438;51.454;6.718;2022-08-19T00:55:44;18.90;99.90
20560;DHT22;10438;51.454;6.718;2022-08-19T00:58:15;18.90;99.90
20560;DHT22;10438;51.454;6.718;2022-08-19T01:00:41;18.90;99.90
20560;DHT22;10438;51.454;6.718;2022-08-19T01:03:09;18.80;99.90
20560;DHT22;10438;51.454;6.718;2022-08-19T01:05:35;18.80;99.90
20560;DHT22;10438;51.454;6.718;2022-08-19T01:08:03;18.80;99.90
20560;DHT22;10438;51.454;6.718;2022-08-19T01:10:33;18.80;99.90
20560;DHT22;10438;51.454;6.718;2022-08-19T01:13:01;18.70;99.90
20560;DHT22;10438;51.454;6.718;2022-08-19T01:15:32;18.70;99.90
20560;DHT22;10438;51.454;6.718;2022-08-19T01:18:01;18.70;99.90
20560;DHT22;10438;51.454;6.718;2022-08-19T01:20:29;18.70;99.90
20560;DHT22;10438;51.454;6.718;2022-08-19T01:22:58;18.70;99.90
20560;DHT22;10438;51.454;6.718;2022-08-19T01:25:31;18.70;99.90
20560;DHT22;10438;51.454;6.718;2022-08-19T01:27:57;18.70;99.90
20560;DHT22;10438;51.454;6.718;2022-08-19T01:30:28;18.60;99.90
20560;DHT22;10438;51.454;6.718;2022-08-19T01:32:56;18.60;99.90
20560;DHT22;10438;51.454;6.718;2022-08-19T01:35:23;18.60;99.90
20560;DHT22;10438;51.454;6.718;2022-08-19T01:37:55;18.60;99.90
20560;DHT22;10438;51.454;6.718;2022-08-19T01:40:23;18.60;99.90
20560;DHT22;10438;51.454;6.718;2022-08-19T01:42:50;18.60;99.90
20560;DHT22;10438;51.454;6.718;2022-08-19T01:45:17;18.60;99.90
20560;DHT22;10438;51.454;6.718;2022-08-19T01:47:43;18.60;99.90
20560;DHT22;10438;51.454;6.718;2022-08-19T01:50:10;18.50;99.90
20560;DHT22;10438;51.454;6.718;2022-08-19T01:52:37;18.50;99.90
20560;DHT22;10438;51.454;6.718;2022-08-19T01:55:04;18.50;99.90
20560;DHT22;10438;51.454;6.718;2022-08-19T01:57:31;18.50;99.90
20560;DHT22;10438;51.454;6.718;2022-08-19T01:59:56;18.50;99.90
20560;DHT22;10438;51.454;6.718;2022-08-19T02:02:22;18.50;99.90
20560;DHT22;10438;51.454;6.718;2022-08-19T02:04:48;18.50;99.90
20560;DHT22;10438;51.454;6.718;2022-08-19T02:07:14;18.40;99.90
20560;DHT22;10438;51.454;6.718;2022-08-19T02:09:40;18.40;99.90
20560;DHT22;10438;51.454;6.718;2022-08-19T02:12:07;18.40;99.90
20560;DHT22;10438;51.454;6.718;2022-08-19T02:14:35;18.40;99.90
20560;DHT22;10438;51.454;6.718;2022-08-19T02:17:00;18.40;99.90
20560;DHT22;10438;51.454;6.718;2022-08-19T02:19:26;18.30;99.90
20560;DHT22;10438;51.454;6.718;2022-08-19T02:21:53;18.30;99.90
20560;DHT22;10438;51.454;6.718;2022-08-19T02:24:18;18.30;99.90
20560;DHT22;10438;51.454;6.718;2022-08-19T02:26:44;18.30;99.90
20560;DHT22;10438;51.454;6.718;2022-08-19T02:29:10;18.30;99.90
20560;DHT22;10438;51.454;6.718;2022-08-19T02:31:35;18.30;99.90
20560;DHT22;10438;51.454;6.718;2022-08-19T02:34:01;18.30;99.90
20560;DHT22;10438;51.454;6.718;2022-08-19T02:36:27;18.30;99.90
20560;DHT22;10438;51.454;6.718;2022-08-19T02:38:53;18.30;99.90
20560;DHT22;10438;51.454;6.718;2022-08-19T02:41:31;18.30;99.90
20560;DHT22;10438;51.454;6.718;2022-08-19T02:43:58;18.30;99.90
20560;DHT22;10438;51.454;6.718;2022-08-19T02:46:27;18.30;99.90
20560;DHT22;10438;51.454;6.718;2022-08-19T02:48:56;18.30;99.90
20560;DHT22;10438;51.454;6.718;2022-08-19T02:51:29;18.20;99.90
20560;DHT22;10438;51.454;6.718;2022-08-19T02:53:55;18.20;99.90
20560;DHT22;10438;51.454;6.718;2022-08-19T02:56:22;18.20;99.90
20560;DHT22;10438;51.454;6.718;2022-08-19T02:58:50;18.20;99.90
20560;DHT22;10438;51.454;6.718;2022-08-19T03:01:27;18.20;99.90
20560;DHT22;10438;51.454;6.718;2022-08-19T03:03:53;18.20;99.90
20560;DHT22;10438;51.454;6.718;2022-08-19T03:06:20;18.20;99.90
20560;DHT22;10438;51.454;6.718;2022-08-19T03:08:47;18.20;99.90
20560;DHT22;10438;51.454;6.718;2022-08-19T03:11:24;18.20;99.90
20560;DHT22;10438;51.454;6.718;2022-08-19T03:13:51;18.10;99.90
20560;DHT22;10438;51.454;6.718;2022-08-19T03:16:18;18.10;99.90
20560;DHT22;10438;51.454;6.718;2022-08-19T03:18:43;18.10;99.90
20560;DHT22;10438;51.454;6.718;2022-08-19T03:21:09;18.10;99.90
20560;DHT22;10438;51.454;6.718;2022-08-19T03:23:39;18.20;99.90
20560;DHT22;10438;51.454;6.718;2022-08-19T03:26:05;18.30;99.90
20560;DHT22;10438;51.454;6.718;2022-08-19T03:28:32;18.30;99.90
20560;DHT22;10438;51.454;6.718;2022-08-19T03:31:04;18.30;99.90
20560;DHT22;10438;51.454;6.718;2022-08-19T03:33:30;18.30;99.90
20560;DHT22;10438;51.454;6.718;2022-08-19T03:36:04;18.30;99.90
20560;DHT22;10438;51.454;6.718;2022-08-19T03:38:31;18.30;99.90
20560;DHT22;10438;51.454;6.718;2022-08-19T03:40:57;18.30;99.90
20560;DHT22;10438;51.454;6.718;2022-08-19T03:43:23;18.30;99.90
20560;DHT22;10438;51.454;6.718;2022-08-19T03:45:48;18.30;99.90
20560;DHT22;10438;51.454;6.718;2022-08-19T03:48:14;18.30;99.90
20560;DHT22;10438;51.454;6.718;2022-08-19T03:50:42;18.20;99.90
20560;DHT22;10438;51.454;6.718;2022-08-19T03:53:08;18.20;99.90
20560;DHT22;10438;51.454;6.718;2022-08-19T03:55:38;18.10;99.90
20560;DHT22;10438;51.454;6.718;2022-08-19T03:58:04;18.10;99.90
20560;DHT22;10438;51.454;6.718;2022-08-19T04:00:29;18.10;99.90
20560;DHT22;10438;51.454;6.718;2022-08-19T04:02:55;18.00;99.90
20560;DHT22;10438;51.454;6.718;2022-08-19T04:05:20;18.00;99.90
20560;DHT22;10438;51.454;6.718;2022-08-19T04:07:46;17.90;99.90
20560;DHT22;10438;51.454;6.718;2022-08-19T04:10:11;17.90;99.90
20560;DHT22;10438;51.454;6.718;2022-08-19T04:12:37;17.90;99.90
20560;DHT22;10438;51.454;6.718;2022-08-19T04:15:03;17.90;99.90
20560;DHT22;10438;51.454;6.718;2022-08-19T04:17:29;17.80;99.90
20560;DHT22;10438;51.454;6.718;2022-08-19T04:19:55;17.80;99.90
20560;DHT22;10438;51.454;6.718;2022-08-19T04:22:20;17.80;99.90
20560;DHT22;10438;51.454;6.718;2022-08-19T04:24:46;17.80;99.90
20560;DHT22;10438;51.454;6.718;2022-08-19T04:27:11;17.80;99.90
20560;DHT22;10438;51.454;6.718;2022-08-19T04:29:37;17.80;99.90
20560;DHT22;10438;51.454;6.718;2022-08-19T04:32:04;17.70;99.90
20560;DHT22;10438;51.454;6.718;2022-08-19T04:34:30;17.70;99.90
20560;DHT22;10438;51.454;6.718;2022-08-19T04:36:57;17.70;99.90
20560;DHT22;10438;51.454;6.718;2022-08-19T04:39:27;17.70;99.90
20560;DHT22;10438;51.454;6.718;2022-08-19T04:42:15;17.70;99.90
20560;DHT22;10438;51.454;6.718;2022-08-19T04:44:59;17.70;99.90
20560;DHT22;10438;51.454;6.718;2022-08-19T04:47:25;17.70;99.90
20560;DHT22;10438;51.454;6.718;2022-08-19T04:49:50;17.70;99.90
20560;DHT22;10438;51.454;6.718;2022-08-19T04:52:16;17.70;99.90
20560;DHT22;10438;51.454;6.718;2022-08-19T04:54:41;17.70;99.90
20560;DHT22;10438;51.454;6.718;2022-08-19T04:57:07;17.70;99.90
20560;DHT22;10438;51.454;6.718;2022-08-19T04:59:35;17.80;99.90
20560;DHT22;10438;51.454;6.718;2022-08-19T05:02:02;17.80;99.90
20560;DHT22;10438;51.454;6.718;2022-08-19T05:04:28;17.80;99.90
20560;DHT22;10438;51.454;6.718;2022-08-19T05:06:57;17.80;99.90
20560;DHT22;10438;51.454;6.718;2022-08-19T05:09:22;17.80;99.90
20560;DHT22;10438;51.454;6.718;2022-08-19T05:11:48;17.80;99.90
20560;DHT22;10438;51.454;6.718;2022-08-19T05:14:16;17.90;99.90
20560;DHT22;10438;51.454;6.718;2022-08-19T05:16:41;18.00;99.90
20560;DHT22;10438;51.454;6.718;2022-08-19T05:19:07;18.00;99.90
20560;DHT22;10438;51.454;6.718;2022-08-19T05:21:51;18.00;99.90
20560;DHT22;10438;51.454;6.718;2022-08-19T05:24:35;18.10;99.90
20560;DHT22;10438;51.454;6.718;2022-08-19T05:27:01;18.10;99.90
20560;DHT22;10438;51.454;6.718;2022-08-19T05:29:29;18.10;99.90
20560;DHT22;10438;51.454;6.718;2022-08-19T05:31:55;18.20;99.90
20560;DHT22;10438;51.454;6.718;2022-08-19T05:34:22;18.20;99.90
20560;DHT22;10438;51.454;6.718;2022-08-19T05:36:49;18.30;99.90
20560;DHT22;10438;51.454;6.718;2022-08-19T05:39:18;18.30;99.90
20560;DHT22;10438;51.454;6.718;2022-08-19T05:41:56;18.30;99.90
20560;DHT22;10438;51.454;6.718;2022-08-19T05:44:23;18.30;99.90
20560;DHT22;10438;51.454;6.718;2022-08-19T05:46:49;18.20;99.90
20560;DHT22;10438;51.454;6.718;2022-08-19T05:49:19;18.30;99.90
20560;DHT22;10438;51.454;6.718;2022-08-19T05:51:45;18.20;99.90
20560;DHT22;10438;51.454;6.718;2022-08-19T05:54:11;18.20;99.90
20560;DHT22;10438;51.454;6.718;2022-08-19T05:56:39;18.20;99.90
20560;DHT22;10438;51.454;6.718;2022-08-19T05:59:07;18.20;99.90
20560;DHT22;10438;51.454;6.718;2022-08-19T06:01:35;18.20;99.90
20560;DHT22;10438;51.454;6.718;2022-08-19T06:04:02;18.20;99.90
20560;DHT22;10438;51.454;6.718;2022-08-19T06:06:28;18.20;99.90
20560;DHT22;10438;51.454;6.718;2022-08-19T06:08:53;18.30;99.90
20560;DHT22;10438;51.454;6.718;2022-08-19T06:14:02;18.30;99.90
20560;DHT22;10438;51.454;6.718;2022-08-19T06:16:28;18.40;99.90
20560;DHT22;10438;51.454;6.718;2022-08-19T06:19:02;18.40;99.90
20560;DHT22;10438;51.454;6.718;2022-08-19T06:21:29;18.50;99.90
20560;DHT22;10438;51.454;6.718;2022-08-19T06:23:56;18.50;99.90
20560;DHT22;10438;51.454;6.718;2022-08-19T06:26:22;18.60;99.90
20560;DHT22;10438;51.454;6.718;2022-08-19T06:28:48;18.60;99.90
20560;DHT22;10438;51.454;6.718;2022-08-19T06:31:25;18.60;99.90
20560;DHT22;10438;51.454;6.718;2022-08-19T06:33:51;18.60;99.90
20560;DHT22;10438;51.454;6.718;2022-08-19T06:36:27;18.70;99.90
20560;DHT22;10438;51.454;6.718;2022-08-19T06:39:00;18.70;99.90
20560;DHT22;10438;51.454;6.718;2022-08-19T06:41:29;18.80;99.90
20560;DHT22;10438;51.454;6.718;2022-08-19T06:43:55;18.90;99.90
20560;DHT22;10438;51.454;6.718;2022-08-19T06:46:21;18.90;99.90
20560;DHT22;10438;51.454;6.718;2022-08-19T06:48:47;19.00;99.90
20560;DHT22;10438;51.454;6.718;2022-08-19T06:51:15;19.00;99.90
20560;DHT22;10438;51.454;6.718;2022-08-19T06:53:47;19.10;99.90
20560;DHT22;10438;51.454;6.718;2022-08-19T06:56:14;19.10;99.90
20560;DHT22;10438;51.454;6.718;2022-08-19T06:58:41;19.20;99.90
20560;DHT22;10438;51.454;6.718;2022-08-19T07:01:07;19.30;99.90
20560;DHT22;10438;51.454;6.718;2022-08-19T07:03:35;19.40;99.90
20560;DHT22;10438;51.454;6.718;2022-08-19T07:06:10;19.50;99.90
20560;DHT22;10438;51.454;6.718;2022-08-19T07:08:37;19.50;99.90
20560;DHT22;10438;51.454;6.718;2022-08-19T07:11:07;19.60;99.90
20560;DHT22;10438;51.454;6.718;2022-08-19T07:13:35;19.70;99.90
20560;DHT22;10438;51.454;6.718;2022-08-19T07:16:06;19.70;99.90
20560;DHT22;10438;51.454;6.718;2022-08-19T07:18:32;19.80;99.90
20560;DHT22;10438;51.454;6.718;2022-08-19T07:21:11;19.90;99.90
20560;DHT22;10438;51.454;6.718;2022-08-19T07:23:37;20.10;99.90
20560;DHT22;10438;51.454;6.718;2022-08-19T07:26:08;20.20;99.90
20560;DHT22;10438;51.454;6.718;2022-08-19T07:28:34;20.30;99.90
20560;DHT22;10438;51.454;6.718;2022-08-19T07:31:00;20.40;99.90
20560;DHT22;10438;51.454;6.718;2022-08-19T07:33:27;20.60;99.90
20560;DHT22;10438;51.454;6.718;2022-08-19T07:35:52;20.70;99.90
20560;DHT22;10438;51.454;6.718;2022-08-19T07:38:18;20.90;99.90
20560;DHT22;10438;51.454;6.718;2022-08-19T07:40:45;21.10;99.90
20560;DHT22;10438;51.454;6.718;2022-08-19T07:43:11;21.30;99.90
20560;DHT22;10438;51.454;6.718;2022-08-19T07:45:37;21.40;99.90
20560;DHT22;10438;51.454;6.718;2022-08-19T07:48:02;21.50;99.90
20560;DHT22;10438;51.454;6.718;2022-08-19T07:50:29;21.60;99.90
20560;DHT22;10438;51.454;6.718;2022-08-19T07:52:55;21.80;99.90
20560;DHT22;10438;51.454;6.718;2022-08-19T07:55:24;22.00;99.90
20560;DHT22;10438;51.454;6.718;2022-08-19T07:57:50;22.00;99.90
20560;DHT22;10438;51.454;6.718;2022-08-19T08:00:17;22.10;99.90
20560;DHT22;10438;51.454;6.718;2022-08-19T08:02:43;22.20;99.90
20560;DHT22;10438;51.454;6.718;2022-08-19T08:05:09;22.30;99.90
20560;DHT22;10438;51.454;6.718;2022-08-19T08:07:53;22.50;99.90
20560;DHT22;10438;51.454;6.718;2022-08-19T08:10:37;22.60;99.90
20560;DHT22;10438;51.454;6.718;2022-08-19T08:13:03;22.70;99.90
20560;DHT22;10438;51.454;6.718;2022-08-19T08:15:31;23.00;99.90
20560;DHT22;10438;51.454;6.718;2022-08-19T08:17:56;23.10;99.90
20560;DHT22;10438;51.454;6.718;2022-08-19T08:20:23;23.20;99.90
20560;DHT22;10438;51.454;6.718;2022-08-19T08:22:49;23.20;99.90
20560;DHT22;10438;51.454;6.718;2022-08-19T08:25:34;23.30;99.90
20560;DHT22;10438;51.454;6.718;2022-08-19T08:28:01;23.30;99.90
20560;DHT22;10438;51.454;6.718;2022-08-19T08:30:29;23.30;99.90
20560;DHT22;10438;51.454;6.718;2022-08-19T08:32:55;23.40;99.90
20560;DHT22;10438;51.454;6.718;2022-08-19T08:35:22;23.50;99.90
20560;DHT22;10438;51.454;6.718;2022-08-19T08:37:50;23.70;99.90
20560;DHT22;10438;51.454;6.718;2022-08-19T08:40:21;23.40;99.90
20560;DHT22;10438;51.454;6.718;2022-08-19T08:43:17;23.30;99.90
20560;DHT22;10438;51.454;6.718;2022-08-19T08:48:52;23.40;99.90
20560;DHT22;10438;51.454;6.718;2022-08-19T08:51:27;23.50;99.90
20560;DHT22;10438;51.454;6.718;2022-08-19T08:53:54;23.60;99.90
20560;DHT22;10438;51.454;6.718;2022-08-19T08:56:20;23.70;99.90
20560;DHT22;10438;51.454;6.718;2022-08-19T08:58:56;23.70;99.90
20560;DHT22;10438;51.454;6.718;2022-08-19T09:01:24;23.90;99.90
20560;DHT22;10438;51.454;6.718;2022-08-19T09:03:49;24.10;99.90
20560;DHT22;10438;51.454;6.718;2022-08-19T09:09:17;24.40;99.90
20560;DHT22;10438;51.454;6.718;2022-08-19T09:14:58;24.00;99.90
20560;DHT22;10438;51.454;6.718;2022-08-19T09:17:27;24.10;99.90
20560;DHT22;10438;51.454;6.718;2022-08-19T09:22:31;24.20;99.90
20560;DHT22;10438;51.454;6.718;2022-08-19T09:24:56;24.50;99.90
20560;DHT22;10438;51.454;6.718;2022-08-19T09:27:22;24.70;99.90
20560;DHT22;10438;51.454;6.718;2022-08-19T09:29:52;24.50;99.90
20560;DHT22;10438;51.454;6.718;2022-08-19T09:32:19;24.50;99.90
20560;DHT22;10438;51.454;6.718;2022-08-19T09:34:45;24.70;99.90
20560;DHT22;10438;51.454;6.718;2022-08-19T09:37:10;24.60;99.90
20560;DHT22;10438;51.454;6.718;2022-08-19T09:39:38;24.50;99.90
20560;DHT22;10438;51.454;6.718;2022-08-19T09:42:03;24.40;99.90
20560;DHT22;10438;51.454;6.718;2022-08-19T09:44:30;24.40;99.90
20560;DHT22;10438;51.454;6.718;2022-08-19T09:46:55;24.40;99.90
20560;DHT22;10438;51.454;6.718;2022-08-19T09:49:21;24.50;99.90
20560;DHT22;10438;51.454;6.718;2022-08-19T09:51:51;24.60;99.90
20560;DHT22;10438;51.454;6.718;2022-08-19T09:54:17;24.70;99.90
20560;DHT22;10438;51.454;6.718;2022-08-19T09:56:43;24.70;99.90
20560;DHT22;10438;51.454;6.718;2022-08-19T09:59:09;24.70;99.90
20560;DHT22;10438;51.454;6.718;2022-08-19T10:01:37;24.70;99.90
20560;DHT22;10438;51.454;6.718;2022-08-19T10:04:03;24.70;99.90
20560;DHT22;10438;51.454;6.718;2022-08-19T10:06:34;24.90;99.90
20560;DHT22;10438;51.454;6.718;2022-08-19T10:09:00;25.10;99.90
20560;DHT22;10438;51.454;6.718;2022-08-19T10:11:26;25.50;99.90
20560;DHT22;10438;51.454;6.718;2022-08-19T10:13:53;25.70;99.90
20560;DHT22;10438;51.454;6.718;2022-08-19T10:16:21;25.80;99.90
20560;DHT22;10438;51.454;6.718;2022-08-19T10:18:47;25.60;99.90
20560;DHT22;10438;51.454;6.718;2022-08-19T10:21:22;25.50;99.90
20560;DHT22;10438;51.454;6.718;2022-08-19T10:23:50;25.60;99.90
20560;DHT22;10438;51.454;6.718;2022-08-19T10:26:20;25.60;99.90
20560;DHT22;10438;51.454;6.718;2022-08-19T10:28:45;25.70;99.90
20560;DHT22;10438;51.454;6.718;2022-08-19T10:31:15;25.90;99.90
20560;DHT22;10438;51.454;6.718;2022-08-19T10:33:42;25.90;99.90
20560;DHT22;10438;51.454;6.718;2022-08-19T10:36:12;26.10;99.90
20560;DHT22;10438;51.454;6.718;2022-08-19T10:38:40;26.30;99.90
20560;DHT22;10438;51.454;6.718;2022-08-19T10:41:08;26.40;99.90
20560;DHT22;10438;51.454;6.718;2022-08-19T10:43:34;26.50;99.90
20560;DHT22;10438;51.454;6.718;2022-08-19T10:46:05;26.70;99.30
20560;DHT22;10438;51.454;6.718;2022-08-19T10:48:31;26.80;98.30
20560;DHT22;10438;51.454;6.718;2022-08-19T10:50:58;26.90;97.90
20560;DHT22;10438;51.454;6.718;2022-08-19T10:53:42;26.90;91.70
20560;DHT22;10438;51.454;6.718;2022-08-19T10:56:07;27.00;92.20
20560;DHT22;10438;51.454;6.718;2022-08-19T10:58:51;26.70;87.00
20560;DHT22;10438;51.454;6.718;2022-08-19T11:01:17;26.30;90.30
20560;DHT22;10438;51.454;6.718;2022-08-19T11:03:43;26.10;91.20
20560;DHT22;10438;51.454;6.718;2022-08-19T11:06:10;26.40;94.20
20560;DHT22;10438;51.454;6.718;2022-08-19T11:08:36;26.60;92.60
20560;DHT22;10438;51.454;6.718;2022-08-19T11:11:07;26.70;89.80
20560;DHT22;10438;51.454;6.718;2022-08-19T11:13:38;26.80;93.00
20560;DHT22;10438;51.454;6.718;2022-08-19T11:16:11;26.80;84.60
20560;DHT22;10438;51.454;6.718;2022-08-19T11:18:41;26.50;78.50
20560;DHT22;10438;51.454;6.718;2022-08-19T11:21:21;26.60;84.70
20560;DHT22;10438;51.454;6.718;2022-08-19T11:23:49;27.00;76.50
20560;DHT22;10438;51.454;6.718;2022-08-19T11:26:16;27.00;75.90
20560;DHT22;10438;51.454;6.718;2022-08-19T11:28:42;26.80;86.20
20560;DHT22;10438;51.454;6.718;2022-08-19T11:31:18;27.10;84.60
20560;DHT22;10438;51.454;6.718;2022-08-19T11:33:45;27.30;77.50
20560;DHT22;10438;51.454;6.718;2022-08-19T11:36:11;27.50;68.30
20560;DHT22;10438;51.454;6.718;2022-08-19T11:38:37;27.60;76.60
20560;DHT22;10438;51.454;6.718;2022-08-19T11:41:06;27.40;64.10
20560;DHT22;10438;51.454;6.718;2022-08-19T11:43:33;27.40;68.90
20560;DHT22;10438;51.454;6.718;2022-08-19T11:45:59;27.00;61.50
20560;DHT22;10438;51.454;6.718;2022-08-19T11:48:25;27.00;71.60
20560;DHT22;10438;51.454;6.718;2022-08-19T11:50:52;27.00;66.10
20560;DHT22;10438;51.454;6.718;2022-08-19T11:53:20;27.40;65.80
20560;DHT22;10438;51.454;6.718;2022-08-19T11:55:47;27.50;43.10
20560;DHT22;10438;51.454;6.718;2022-08-19T11:58:14;27.50;45.70
20560;DHT22;10438;51.454;6.718;2022-08-19T12:00:41;27.80;46.60
20560;DHT22;10438;51.454;6.718;2022-08-19T12:03:07;28.20;44.60
20560;DHT22;10438;51.454;6.718;2022-08-19T12:05:33;28.20;42.50
20560;DHT22;10438;51.454;6.718;2022-08-19T12:07:59;28.10;40.60
20560;DHT22;10438;51.454;6.718;2022-08-19T12:10:25;27.90;46.30
20560;DHT22;10438;51.454;6.718;2022-08-19T12:12:50;28.10;53.40
20560;DHT22;10438;51.454;6.718;2022-08-19T12:15:16;28.50;44.40
20560;DHT22;10438;51.454;6.718;2022-08-19T12:17:42;28.50;38.50
20560;DHT22;10438;51.454;6.718;2022-08-19T12:20:09;28.50;31.20
20560;DHT22;10438;51.454;6.718;2022-08-19T12:22:37;28.50;29.80
20560;DHT22;10438;51.454;6.718;2022-08-19T12:25:04;28.60;30.60
20560;DHT22;10438;51.454;6.718;2022-08-19T12:27:30;28.90;31.10
20560;DHT22;10438;51.454;6.718;2022-08-19T12:29:56;29.40;35.00
20560;DHT22;10438;51.454;6.718;2022-08-19T12:32:22;29.20;24.20
20560;DHT22;10438;51.454;6.718;2022-08-19T12:34:49;29.30;26.30
20560;DHT22;10438;51.454;6.718;2022-08-19T12:37:14;29.50;22.20
20560;DHT22;10438;51.454;6.718;2022-08-19T12:39:41;29.40;15.60
20560;DHT22;10438;51.454;6.718;2022-08-19T12:42:08;29.60;15.70
20560;DHT22;10438;51.454;6.718;2022-08-19T12:44:35;29.20;16.90
20560;DHT22;10438;51.454;6.718;2022-08-19T12:47:01;29.50;22.20
20560;DHT22;10438;51.454;6.718;2022-08-19T12:49:29;29.70;18.50
20560;DHT22;10438;51.454;6.718;2022-08-19T12:51:56;29.60;18.00
20560;DHT22;10438;51.454;6.718;2022-08-19T12:54:23;30.00;16.40
20560;DHT22;10438;51.454;6.718;2022-08-19T12:56:48;29.60;14.30
20560;DHT22;10438;51.454;6.718;2022-08-19T12:59:14;29.90;15.10
20560;DHT22;10438;51.454;6.718;2022-08-19T13:01:43;30.30;15.80
20560;DHT22;10438;51.454;6.718;2022-08-19T13:04:09;30.40;13.80
20560;DHT22;10438;51.454;6.718;2022-08-19T13:06:35;29.70;13.60
20560;DHT22;10438;51.454;6.718;2022-08-19T13:09:01;29.70;15.90
20560;DHT22;10438;51.454;6.718;2022-08-19T13:11:27;29.50;14.10
20560;DHT22;10438;51.454;6.718;2022-08-19T13:13:58;29.80;14.00
20560;DHT22;10438;51.454;6.718;2022-08-19T13:16:24;30.10;14.50
20560;DHT22;10438;51.454;6.718;2022-08-19T13:18:50;30.30;15.40
20560;DHT22;10438;51.454;6.718;2022-08-19T13:21:20;31.10;12.20
20560;DHT22;10438;51.454;6.718;2022-08-19T13:23:46;31.20;10.10
20560;DHT22;10438;51.454;6.718;2022-08-19T13:26:12;31.10;10.10
20560;DHT22;10438;51.454;6.718;2022-08-19T13:28:39;31.10;9.50
20560;DHT22;10438;51.454;6.718;2022-08-19T13:31:25;31.20;8.30
20560;DHT22;10438;51.454;6.718;2022-08-19T13:34:10;31.20;8.50
20560;DHT22;10438;51.454;6.718;2022-08-19T13:36:36;31.70;8.30
20560;DHT22;10438;51.454;6.718;2022-08-19T13:39:04;31.70;5.50
20560;DHT22;10438;51.454;6.718;2022-08-19T13:41:29;31.70;5.80
20560;DHT22;10438;51.454;6.718;2022-08-19T13:43:56;31.30;5.40
20560;DHT22;10438;51.454;6.718;2022-08-19T13:46:21;31.40;4.00
20560;DHT22;10438;51.454;6.718;2022-08-19T13:48:47;31.30;5.90
20560;DHT22;10438;51.454;6.718;2022-08-19T13:51:14;31.70;5.30
20560;DHT22;10438;51.454;6.718;2022-08-19T13:53:42;32.20;4.30
20560;DHT22;10438;51.454;6.718;2022-08-19T13:56:11;32.10;3.60
20560;DHT22;10438;51.454;6.718;2022-08-19T13:58:37;32.30;4.70
20560;DHT22;10438;51.454;6.718;2022-08-19T14:01:04;32.10;4.70
20560;DHT22;10438;51.454;6.718;2022-08-19T14:03:31;31.80;5.90
20560;DHT22;10438;51.454;6.718;2022-08-19T14:05:57;32.00;5.00
20560;DHT22;10438;51.454;6.718;2022-08-19T14:08:23;31.80;6.90
20560;DHT22;10438;51.454;6.718;2022-08-19T14:10:49;32.10;7.00
20560;DHT22;10438;51.454;6.718;2022-08-19T14:13:18;32.40;6.60
20560;DHT22;10438;51.454;6.718;2022-08-19T14:15:44;32.60;5.80
20560;DHT22;10438;51.454;6.718;2022-08-19T14:18:10;32.20;4.50
20560;DHT22;10438;51.454;6.718;2022-08-19T14:20:36;31.90;5.80
20560;DHT22;10438;51.454;6.718;2022-08-19T14:23:03;31.20;7.50
20560;DHT22;10438;51.454;6.718;2022-08-19T14:25:30;30.50;8.60
20560;DHT22;10438;51.454;6.718;2022-08-19T14:27:57;30.70;9.70
20560;DHT22;10438;51.454;6.718;2022-08-19T14:30:26;31.10;9.50
20560;DHT22;10438;51.454;6.718;2022-08-19T14:32:53;31.40;5.70
20560;DHT22;10438;51.454;6.718;2022-08-19T14:35:19;31.50;5.60
20560;DHT22;10438;51.454;6.718;2022-08-19T14:37:48;31.50;4.70
20560;DHT22;10438;51.454;6.718;2022-08-19T14:40:19;31.60;4.30
20560;DHT22;10438;51.454;6.718;2022-08-19T14:42:47;31.70;3.10
20560;DHT22;10438;51.454;6.718;2022-08-19T14:45:13;32.00;2.80
20560;DHT22;10438;51.454;6.718;2022-08-19T14:47:39;32.10;2.40
20560;DHT22;10438;51.454;6.718;2022-08-19T14:50:09;32.00;1.00
20560;DHT22;10438;51.454;6.718;2022-08-19T14:52:35;32.00;1.10
20560;DHT22;10438;51.454;6.718;2022-08-19T14:55:03;32.40;1.00
20560;DHT22;10438;51.454;6.718;2022-08-19T14:57:29;32.20;1.00
20560;DHT22;10438;51.454;6.718;2022-08-19T14:59:54;32.00;1.00
20560;DHT22;10438;51.454;6.718;2022-08-19T15:02:20;32.30;1.00
20560;DHT22;10438;51.454;6.718;2022-08-19T15:04:46;32.60;1.00
20560;DHT22;10438;51.454;6.718;2022-08-19T15:07:11;32.50;1.00
20560;DHT22;10438;51.454;6.718;2022-08-19T15:09:37;32.00;1.00
20560;DHT22;10438;51.454;6.718;2022-08-19T15:12:03;31.80;2.00
20560;DHT22;10438;51.454;6.718;2022-08-19T15:14:29;31.80;2.10
20560;DHT22;10438;51.454;6.718;2022-08-19T15:17:01;32.30;1.00
20560;DHT22;10438;51.454;6.718;2022-08-19T15:19:28;33.00;1.00
20560;DHT22;10438;51.454;6.718;2022-08-19T15:21:54;33.40;1.00
20560;DHT22;10438;51.454;6.718;2022-08-19T15:24:20;33.50;1.00
20560;DHT22;10438;51.454;6.718;2022-08-19T15:26:45;33.00;1.00
20560;DHT22;10438;51.454;6.718;2022-08-19T15:29:11;32.20;1.00
20560;DHT22;10438;51.454;6.718;2022-08-19T15:31:41;31.60;1.00
20560;DHT22;10438;51.454;6.718;2022-08-19T15:34:07;30.90;2.20
20560;DHT22;10438;51.454;6.718;2022-08-19T15:36:33;30.20;3.80
20560;DHT22;10438;51.454;6.718;2022-08-19T15:39:00;29.70;5.20
20560;DHT22;10438;51.454;6.718;2022-08-19T15:41:28;29.30;6.50
20560;DHT22;10438;51.454;6.718;2022-08-19T15:43:57;29.10;7.20
20560;DHT22;10438;51.454;6.718;2022-08-19T15:46:29;29.00;7.60
20560;DHT22;10438;51.454;6.718;2022-08-19T15:48:56;28.80;7.50
20560;DHT22;10438;51.454;6.718;2022-08-19T15:51:22;28.70;7.60